sensor_id;sensor_type;location;lat;lon;timestamp;P1;durP1;ratioP1;P2;durP2;ratioP2
64598;SDS011;51008;51.504;11.548;2022-10-31T00:01:48;14.68;;;5.50;;
64598;SDS011;51008;51.504;11.548;2022-10-31T00:06:50;10.18;;;5.22;;
64598;SDS011;51008;51.504;11.548;2022-10-31T00:11:51;14.98;;;5.18;;
64598;SDS011;51008;51.504;11.548;2022-10-31T00:16:52;18.13;;;4.97;;
64598;SDS011;51008;51.504;11.548;2022-10-31T00:21:53;14.80;;;4.85;;
64598;SDS011;51008;51.504;11.548;2022-10-31T00:31:58;13.98;;;4.50;;
64598;SDS011;51008;51.504;11.548;2022-10-31T00:36:59;12.63;;;4.43;;
64598;SDS011;51008;51.504;11.548;2022-10-31T00:42:00;19.02;;;5.38;;
64598;SDS011;51008;51.504;11.548;2022-10-31T00:47:01;17.88;;;5.57;;
64598;SDS011;51008;51.504;11.548;2022-10-31T00:52:02;11.13;;;4.50;;
64598;SDS011;51008;51.504;11.548;2022-10-31T00:57:03;14.40;;;5.45;;
64598;SDS011;51008;51.504;11.548;2022-10-31T01:02:04;14.20;;;5.63;;
64598;SDS011;51008;51.504;11.548;2022-10-31T01:07:05;13.15;;;5.88;;
64598;SDS011;51008;51.504;11.548;2022-10-31T01:12:06;16.88;;;5.72;;
64598;SDS011;51008;51.504;11.548;2022-10-31T01:17:07;15.80;;;6.10;;
64598;SDS011;51008;51.504;11.548;2022-10-31T01:22:08;15.85;;;6.10;;
64598;SDS011;51008;51.504;11.548;2022-10-31T01:27:09;11.88;;;6.03;;
64598;SDS011;51008;51.504;11.548;2022-10-31T01:32:11;10.43;;;5.57;;
64598;SDS011;51008;51.504;11.548;2022-10-31T01:37:12;19.15;;;5.70;;
64598;SDS011;51008;51.504;11.548;2022-10-31T01:42:18;16.65;;;5.85;;
64598;SDS011;51008;51.504;11.548;2022-10-31T01:47:54;21.42;;;6.10;;
64598;SDS011;51008;51.504;11.548;2022-10-31T01:52:49;14.65;;;5.82;;
64598;SDS011;51008;51.504;11.548;2022-10-31T01:57:51;18.15;;;5.72;;
64598;SDS011;51008;51.504;11.548;2022-10-31T02:02:56;13.63;;;5.53;;
64598;SDS011;51008;51.504;11.548;2022-10-31T02:07:58;21.02;;;6.32;;
64598;SDS011;51008;51.504;11.548;2022-10-31T02:13:05;11.70;;;5.28;;
64598;SDS011;51008;51.504;11.548;2022-10-31T02:18:11;14.30;;;5.55;;
64598;SDS011;51008;51.504;11.548;2022-10-31T02:23:33;18.92;;;5.72;;
64598;SDS011;51008;51.504;11.548;2022-10-31T02:34:13;13.43;;;5.13;;
64598;SDS011;51008;51.504;11.548;2022-10-31T02:39:35;13.27;;;5.17;;
64598;SDS011;51008;51.504;11.548;2022-10-31T02:44:59;12.63;;;5.63;;
64598;SDS011;51008;51.504;11.548;2022-10-31T03:00:34;11.20;;;5.60;;
64598;SDS011;51008;51.504;11.548;2022-10-31T03:05:48;11.52;;;5.15;;
64598;SDS011;51008;51.504;11.548;2022-10-31T03:11:16;13.63;;;5.13;;
64598;SDS011;51008;51.504;11.548;2022-10-31T03:21:45;12.75;;;5.70;;
64598;SDS011;51008;51.504;11.548;2022-10-31T03:26:51;10.00;;;5.68;;
64598;SDS011;51008;51.504;11.548;2022-10-31T03:32:00;15.05;;;5.95;;
64598;SDS011;51008;51.504;11.548;2022-10-31T03:37:06;13.98;;;5.32;;
64598;SDS011;51008;51.504;11.548;2022-10-31T03:42:10;16.08;;;5.72;;
64598;SDS011;51008;51.504;11.548;2022-10-31T03:47:18;14.82;;;7.28;;
64598;SDS011;51008;51.504;11.548;2022-10-31T03:52:33;13.60;;;6.03;;
64598;SDS011;51008;51.504;11.548;2022-10-31T03:58:02;18.48;;;5.97;;
64598;SDS011;51008;51.504;11.548;2022-10-31T04:03:30;15.93;;;5.68;;
64598;SDS011;51008;51.504;11.548;2022-10-31T04:08:37;15.00;;;5.40;;
64598;SDS011;51008;51.504;11.548;2022-10-31T04:13:44;13.70;;;5.40;;
64598;SDS011;51008;51.504;11.548;2022-10-31T04:18:54;11.48;;;5.30;;
64598;SDS011;51008;51.504;11.548;2022-10-31T04:23:55;18.27;;;6.22;;
64598;SDS011;51008;51.504;11.548;2022-10-31T04:34:01;13.63;;;5.43;;
64598;SDS011;51008;51.504;11.548;2022-10-31T04:39:03;14.85;;;5.90;;
64598;SDS011;51008;51.504;11.548;2022-10-31T04:44:14;14.60;;;5.07;;
64598;SDS011;51008;51.504;11.548;2022-10-31T04:49:16;15.60;;;5.40;;
64598;SDS011;51008;51.504;11.548;2022-10-31T04:54:17;12.75;;;5.65;;
64598;SDS011;51008;51.504;11.548;2022-10-31T04:59:36;15.05;;;5.97;;
64598;SDS011;51008;51.504;11.548;2022-10-31T05:04:38;14.90;;;5.60;;
64598;SDS011;51008;51.504;11.548;2022-10-31T05:09:39;17.45;;;6.30;;
64598;SDS011;51008;51.504;11.548;2022-10-31T05:14:41;15.55;;;6.40;;
64598;SDS011;51008;51.504;11.548;2022-10-31T05:20:08;15.80;;;6.07;;
64598;SDS011;51008;51.504;11.548;2022-10-31T05:25:31;20.83;;;6.63;;
64598;SDS011;51008;51.504;11.548;2022-10-31T05:30:36;21.25;;;6.20;;
64598;SDS011;51008;51.504;11.548;2022-10-31T05:35:40;13.27;;;6.10;;
64598;SDS011;51008;51.504;11.548;2022-10-31T05:40:56;13.45;;;5.38;;
64598;SDS011;51008;51.504;11.548;2022-10-31T05:45:57;17.40;;;6.78;;
64598;SDS011;51008;51.504;11.548;2022-10-31T05:51:18;27.48;;;5.90;;
64598;SDS011;51008;51.504;11.548;2022-10-31T05:56:21;18.40;;;6.68;;
64598;SDS011;51008;51.504;11.548;2022-10-31T06:01:24;15.32;;;6.78;;
64598;SDS011;51008;51.504;11.548;2022-10-31T06:06:25;19.60;;;7.22;;
64598;SDS011;51008;51.504;11.548;2022-10-31T06:11:26;14.27;;;7.32;;
64598;SDS011;51008;51.504;11.548;2022-10-31T06:16:36;14.07;;;7.53;;
64598;SDS011;51008;51.504;11.548;2022-10-31T06:22:00;18.38;;;8.10;;
64598;SDS011;51008;51.504;11.548;2022-10-31T06:27:03;19.23;;;8.70;;
64598;SDS011;51008;51.504;11.548;2022-10-31T06:32:04;29.17;;;12.07;;
64598;SDS011;51008;51.504;11.548;2022-10-31T06:37:11;26.02;;;9.45;;
64598;SDS011;51008;51.504;11.548;2022-10-31T06:47:17;18.10;;;8.18;;
64598;SDS011;51008;51.504;11.548;2022-10-31T06:52:21;26.15;;;9.40;;
64598;SDS011;51008;51.504;11.548;2022-10-31T06:57:22;21.38;;;8.95;;
64598;SDS011;51008;51.504;11.548;2022-10-31T07:02:24;20.42;;;9.23;;
64598;SDS011;51008;51.504;11.548;2022-10-31T07:07:25;22.02;;;10.80;;
64598;SDS011;51008;51.504;11.548;2022-10-31T07:12:27;32.97;;;12.35;;
64598;SDS011;51008;51.504;11.548;2022-10-31T07:17:32;29.52;;;11.65;;
64598;SDS011;51008;51.504;11.548;2022-10-31T07:22:35;19.85;;;9.93;;
64598;SDS011;51008;51.504;11.548;2022-10-31T07:27:39;23.40;;;10.10;;
64598;SDS011;51008;51.504;11.548;2022-10-31T07:32:44;27.95;;;9.68;;
64598;SDS011;51008;51.504;11.548;2022-10-31T07:37:50;26.48;;;11.02;;
64598;SDS011;51008;51.504;11.548;2022-10-31T07:42:52;32.30;;;14.10;;
64598;SDS011;51008;51.504;11.548;2022-10-31T07:48:19;40.03;;;13.55;;
64598;SDS011;51008;51.504;11.548;2022-10-31T07:53:38;25.08;;;12.45;;
64598;SDS011;51008;51.504;11.548;2022-10-31T07:58:57;29.42;;;12.57;;
64598;SDS011;51008;51.504;11.548;2022-10-31T08:03:58;28.35;;;10.80;;
64598;SDS011;51008;51.504;11.548;2022-10-31T08:09:18;24.15;;;10.93;;
64598;SDS011;51008;51.504;11.548;2022-10-31T08:14:19;26.60;;;11.52;;
64598;SDS011;51008;51.504;11.548;2022-10-31T08:19:20;37.92;;;15.10;;
64598;SDS011;51008;51.504;11.548;2022-10-31T08:24:22;38.47;;;17.27;;
64598;SDS011;51008;51.504;11.548;2022-10-31T08:29:23;43.33;;;19.15;;
64598;SDS011;51008;51.504;11.548;2022-10-31T08:34:24;42.30;;;20.20;;
64598;SDS011;51008;51.504;11.548;2022-10-31T08:39:43;44.60;;;22.00;;
64598;SDS011;51008;51.504;11.548;2022-10-31T08:44:45;58.05;;;26.05;;
64598;SDS011;51008;51.504;11.548;2022-10-31T08:49:47;59.22;;;27.58;;
64598;SDS011;51008;51.504;11.548;2022-10-31T08:54:48;61.00;;;27.85;;
64598;SDS011;51008;51.504;11.548;2022-10-31T09:00:08;55.65;;;27.02;;
64598;SDS011;51008;51.504;11.548;2022-10-31T09:05:29;61.65;;;27.70;;
64598;SDS011;51008;51.504;11.548;2022-10-31T09:10:32;64.20;;;27.95;;
64598;SDS011;51008;51.504;11.548;2022-10-31T09:15:38;60.97;;;29.17;;
64598;SDS011;51008;51.504;11.548;2022-10-31T09:20:59;63.63;;;28.92;;
64598;SDS011;51008;51.504;11.548;2022-10-31T09:26:02;57.03;;;28.48;;
64598;SDS011;51008;51.504;11.548;2022-10-31T09:31:03;56.47;;;27.17;;
64598;SDS011;51008;51.504;11.548;2022-10-31T09:36:19;40.65;;;20.50;;
64598;SDS011;51008;51.504;11.548;2022-10-31T09:46:34;46.22;;;24.02;;
64598;SDS011;51008;51.504;11.548;2022-10-31T09:52:47;53.15;;;25.05;;
64598;SDS011;51008;51.504;11.548;2022-10-31T10:02:38;53.78;;;25.70;;
64598;SDS011;51008;51.504;11.548;2022-10-31T10:28:51;56.33;;;26.52;;
64598;SDS011;51008;51.504;11.548;2022-10-31T10:44:45;55.10;;;26.48;;
64598;SDS011;51008;51.504;11.548;2022-10-31T10:49:49;51.58;;;26.73;;
64598;SDS011;51008;51.504;11.548;2022-10-31T11:00:36;61.35;;;27.23;;
64598;SDS011;51008;51.504;11.548;2022-10-31T11:21:31;62.60;;;30.30;;
64598;SDS011;51008;51.504;11.548;2022-10-31T11:26:33;59.80;;;29.50;;
64598;SDS011;51008;51.504;11.548;2022-10-31T11:31:34;56.05;;;26.92;;
64598;SDS011;51008;51.504;11.548;2022-10-31T11:36:37;67.43;;;28.10;;
64598;SDS011;51008;51.504;11.548;2022-10-31T11:41:39;58.08;;;27.63;;
64598;SDS011;51008;51.504;11.548;2022-10-31T11:46:45;58.35;;;28.92;;
64598;SDS011;51008;51.504;11.548;2022-10-31T11:51:50;57.67;;;28.67;;
64598;SDS011;51008;51.504;11.548;2022-10-31T11:56:52;67.38;;;29.98;;
64598;SDS011;51008;51.504;11.548;2022-10-31T12:01:54;61.58;;;29.50;;
64598;SDS011;51008;51.504;11.548;2022-10-31T12:06:57;65.45;;;28.75;;
64598;SDS011;51008;51.504;11.548;2022-10-31T12:17:05;70.07;;;33.22;;
64598;SDS011;51008;51.504;11.548;2022-10-31T12:22:23;67.28;;;32.17;;
64598;SDS011;51008;51.504;11.548;2022-10-31T13:10:00;83.93;;;36.75;;
64598;SDS011;51008;51.504;11.548;2022-10-31T13:15:16;82.22;;;29.00;;
64598;SDS011;51008;51.504;11.548;2022-10-31T13:25:44;62.22;;;27.38;;
64598;SDS011;51008;51.504;11.548;2022-10-31T13:30:48;74.60;;;31.55;;
64598;SDS011;51008;51.504;11.548;2022-10-31T13:46:25;75.60;;;29.35;;
64598;SDS011;51008;51.504;11.548;2022-10-31T13:51:33;62.80;;;31.02;;
64598;SDS011;51008;51.504;11.548;2022-10-31T13:56:34;68.53;;;30.48;;
64598;SDS011;51008;51.504;11.548;2022-10-31T14:01:36;70.10;;;32.60;;
64598;SDS011;51008;51.504;11.548;2022-10-31T14:06:52;76.57;;;32.80;;
64598;SDS011;51008;51.504;11.548;2022-10-31T14:11:57;71.25;;;31.67;;
64598;SDS011;51008;51.504;11.548;2022-10-31T14:17:12;80.40;;;33.40;;
64598;SDS011;51008;51.504;11.548;2022-10-31T14:22:21;67.47;;;31.95;;
64598;SDS011;51008;51.504;11.548;2022-10-31T14:32:25;75.07;;;32.35;;
64598;SDS011;51008;51.504;11.548;2022-10-31T14:43:10;74.07;;;33.65;;
64598;SDS011;51008;51.504;11.548;2022-10-31T14:53:54;72.10;;;32.58;;
64598;SDS011;51008;51.504;11.548;2022-10-31T14:58:57;71.38;;;32.50;;
64598;SDS011;51008;51.504;11.548;2022-10-31T15:04:13;73.18;;;32.00;;
64598;SDS011;51008;51.504;11.548;2022-10-31T15:14:31;67.38;;;32.05;;
64598;SDS011;51008;51.504;11.548;2022-10-31T15:19:32;66.72;;;33.08;;
64598;SDS011;51008;51.504;11.548;2022-10-31T15:24:35;70.80;;;31.50;;
64598;SDS011;51008;51.504;11.548;2022-10-31T15:29:46;66.80;;;31.55;;
64598;SDS011;51008;51.504;11.548;2022-10-31T15:34:56;67.90;;;33.13;;
64598;SDS011;51008;51.504;11.548;2022-10-31T15:40:05;65.85;;;29.73;;
64598;SDS011;51008;51.504;11.548;2022-10-31T15:50:22;61.45;;;29.15;;
64598;SDS011;51008;51.504;11.548;2022-10-31T15:55:29;60.60;;;29.20;;
64598;SDS011;51008;51.504;11.548;2022-10-31T16:00:36;57.90;;;27.38;;
64598;SDS011;51008;51.504;11.548;2022-10-31T16:10:47;60.45;;;29.15;;
64598;SDS011;51008;51.504;11.548;2022-10-31T16:15:49;60.55;;;29.65;;
64598;SDS011;51008;51.504;11.548;2022-10-31T16:20:55;59.42;;;30.00;;
64598;SDS011;51008;51.504;11.548;2022-10-31T16:25:57;69.38;;;33.08;;
64598;SDS011;51008;51.504;11.548;2022-10-31T16:30:58;66.57;;;32.28;;
64598;SDS011;51008;51.504;11.548;2022-10-31T16:35:59;72.75;;;34.00;;
64598;SDS011;51008;51.504;11.548;2022-10-31T16:41:01;64.70;;;30.27;;
64598;SDS011;51008;51.504;11.548;2022-10-31T16:46:02;75.55;;;32.70;;
64598;SDS011;51008;51.504;11.548;2022-10-31T16:51:04;71.60;;;36.15;;
64598;SDS011;51008;51.504;11.548;2022-10-31T16:56:12;69.95;;;33.83;;
64598;SDS011;51008;51.504;11.548;2022-10-31T17:01:16;78.50;;;41.08;;
64598;SDS011;51008;51.504;11.548;2022-10-31T17:06:17;107.07;;;46.42;;
64598;SDS011;51008;51.504;11.548;2022-10-31T17:11:19;89.75;;;41.72;;
64598;SDS011;51008;51.504;11.548;2022-10-31T17:16:24;88.95;;;38.67;;
64598;SDS011;51008;51.504;11.548;2022-10-31T17:21:25;82.93;;;37.10;;
64598;SDS011;51008;51.504;11.548;2022-10-31T17:26:26;80.82;;;36.47;;
64598;SDS011;51008;51.504;11.548;2022-10-31T17:31:28;74.65;;;35.08;;
64598;SDS011;51008;51.504;11.548;2022-10-31T17:36:31;81.78;;;34.85;;
64598;SDS011;51008;51.504;11.548;2022-10-31T17:41:34;90.20;;;37.00;;
64598;SDS011;51008;51.504;11.548;2022-10-31T17:46:35;96.25;;;38.42;;
64598;SDS011;51008;51.504;11.548;2022-10-31T17:51:36;98.25;;;37.35;;
64598;SDS011;51008;51.504;11.548;2022-10-31T17:56:38;146.57;;;46.80;;
64598;SDS011;51008;51.504;11.548;2022-10-31T18:01:39;134.60;;;46.75;;
64598;SDS011;51008;51.504;11.548;2022-10-31T18:06:40;162.55;;;53.60;;
64598;SDS011;51008;51.504;11.548;2022-10-31T18:11:41;131.55;;;49.92;;
64598;SDS011;51008;51.504;11.548;2022-10-31T18:16:42;108.25;;;45.97;;
64598;SDS011;51008;51.504;11.548;2022-10-31T18:21:45;128.73;;;42.90;;
64598;SDS011;51008;51.504;11.548;2022-10-31T18:26:46;150.18;;;46.45;;
64598;SDS011;51008;51.504;11.548;2022-10-31T18:31:47;177.27;;;50.08;;
64598;SDS011;51008;51.504;11.548;2022-10-31T18:36:49;196.48;;;56.35;;
64598;SDS011;51008;51.504;11.548;2022-10-31T18:41:50;180.68;;;54.13;;
64598;SDS011;51008;51.504;11.548;2022-10-31T18:46:51;185.77;;;56.78;;
64598;SDS011;51008;51.504;11.548;2022-10-31T18:51:52;184.45;;;54.17;;
64598;SDS011;51008;51.504;11.548;2022-10-31T18:56:53;159.05;;;50.90;;
64598;SDS011;51008;51.504;11.548;2022-10-31T19:01:54;157.85;;;54.42;;
64598;SDS011;51008;51.504;11.548;2022-10-31T19:06:55;122.95;;;48.35;;
64598;SDS011;51008;51.504;11.548;2022-10-31T19:11:56;131.57;;;51.28;;
64598;SDS011;51008;51.504;11.548;2022-10-31T19:16:57;143.75;;;52.17;;
64598;SDS011;51008;51.504;11.548;2022-10-31T19:21:59;174.75;;;53.50;;
64598;SDS011;51008;51.504;11.548;2022-10-31T19:27:00;146.00;;;50.47;;
64598;SDS011;51008;51.504;11.548;2022-10-31T19:32:01;130.88;;;50.67;;
64598;SDS011;51008;51.504;11.548;2022-10-31T19:37:02;125.13;;;49.38;;
64598;SDS011;51008;51.504;11.548;2022-10-31T19:42:03;120.57;;;47.20;;
64598;SDS011;51008;51.504;11.548;2022-10-31T19:47:04;170.63;;;48.03;;
64598;SDS011;51008;51.504;11.548;2022-10-31T19:52:05;127.70;;;47.78;;
64598;SDS011;51008;51.504;11.548;2022-10-31T19:57:06;108.05;;;47.15;;
64598;SDS011;51008;51.504;11.548;2022-10-31T20:02:09;103.22;;;43.78;;
64598;SDS011;51008;51.504;11.548;2022-10-31T20:07:12;97.30;;;41.80;;
64598;SDS011;51008;51.504;11.548;2022-10-31T20:12:13;107.30;;;43.95;;
64598;SDS011;51008;51.504;11.548;2022-10-31T20:17:14;97.88;;;42.55;;
64598;SDS011;51008;51.504;11.548;2022-10-31T20:22:15;128.27;;;47.58;;
64598;SDS011;51008;51.504;11.548;2022-10-31T20:27:16;108.93;;;44.70;;
64598;SDS011;51008;51.504;11.548;2022-10-31T20:32:18;105.75;;;44.95;;
64598;SDS011;51008;51.504;11.548;2022-10-31T20:37:20;92.68;;;41.03;;
64598;SDS011;51008;51.504;11.548;2022-10-31T20:42:21;86.70;;;42.28;;
64598;SDS011;51008;51.504;11.548;2022-10-31T20:47:22;80.18;;;41.40;;
64598;SDS011;51008;51.504;11.548;2022-10-31T20:52:23;85.35;;;41.30;;
64598;SDS011;51008;51.504;11.548;2022-10-31T20:57:24;87.63;;;41.80;;
64598;SDS011;51008;51.504;11.548;2022-10-31T21:02:25;126.60;;;49.28;;
64598;SDS011;51008;51.504;11.548;2022-10-31T21:07:28;283.10;;;50.80;;
64598;SDS011;51008;51.504;11.548;2022-10-31T21:12:30;92.47;;;43.80;;
64598;SDS011;51008;51.504;11.548;2022-10-31T21:17:31;97.40;;;45.40;;
64598;SDS011;51008;51.504;11.548;2022-10-31T21:22:32;156.15;;;50.58;;
64598;SDS011;51008;51.504;11.548;2022-10-31T21:27:34;99.63;;;46.10;;
64598;SDS011;51008;51.504;11.548;2022-10-31T21:32:35;87.32;;;42.28;;
64598;SDS011;51008;51.504;11.548;2022-10-31T21:37:36;92.47;;;46.60;;
64598;SDS011;51008;51.504;11.548;2022-10-31T21:42:37;111.72;;;46.92;;
64598;SDS011;51008;51.504;11.548;2022-10-31T21:47:38;103.68;;;47.55;;
64598;SDS011;51008;51.504;11.548;2022-10-31T21:52:39;100.13;;;46.25;;
64598;SDS011;51008;51.504;11.548;2022-10-31T21:57:40;96.80;;;46.38;;
64598;SDS011;51008;51.504;11.548;2022-10-31T22:02:41;112.25;;;50.55;;
64598;SDS011;51008;51.504;11.548;2022-10-31T22:07:42;131.93;;;45.38;;
64598;SDS011;51008;51.504;11.548;2022-10-31T22:12:46;79.63;;;42.65;;
64598;SDS011;51008;51.504;11.548;2022-10-31T22:17:49;79.05;;;40.58;;
64598;SDS011;51008;51.504;11.548;2022-10-31T22:22:51;69.13;;;35.53;;
64598;SDS011;51008;51.504;11.548;2022-10-31T22:27:52;70.00;;;37.95;;
64598;SDS011;51008;51.504;11.548;2022-10-31T22:32:53;93.15;;;44.65;;
64598;SDS011;51008;51.504;11.548;2022-10-31T22:37:54;105.32;;;49.78;;
64598;SDS011;51008;51.504;11.548;2022-10-31T22:42:55;139.85;;;54.50;;
64598;SDS011;51008;51.504;11.548;2022-10-31T22:47:56;113.13;;;50.33;;
64598;SDS011;51008;51.504;11.548;2022-10-31T22:52:57;124.55;;;52.55;;
64598;SDS011;51008;51.504;11.548;2022-10-31T22:57:58;115.90;;;50.20;;
64598;SDS011;51008;51.504;11.548;2022-10-31T23:02:59;111.88;;;51.60;;
64598;SDS011;51008;51.504;11.548;2022-10-31T23:08:00;121.15;;;49.53;;
64598;SDS011;51008;51.504;11.548;2022-10-31T23:13:01;115.00;;;51.17;;
64598;SDS011;51008;51.504;11.548;2022-10-31T23:18:02;261.58;;;54.45;;
64598;SDS011;51008;51.504;11.548;2022-10-31T23:23:03;213.00;;;50.55;;
64598;SDS011;51008;51.504;11.548;2022-10-31T23:28:04;732.85;;;62.17;;
64598;SDS011;51008;51.504;11.548;2022-10-31T23:33:05;349.80;;;49.72;;
64598;SDS011;51008;51.504;11.548;2022-10-31T23:38:06;748.90;;;49.97;;
64598;SDS011;51008;51.504;11.548;2022-10-31T23:43:07;928.25;;;54.97;;
64598;SDS011;51008;51.504;11.548;2022-10-31T23:48:08;659.10;;;49.25;;
64598;SDS011;51008;51.504;11.548;2022-10-31T23:53:09;673.63;;;49.47;;
64598;SDS011;51008;51.504;11.548;2022-10-31T23:58:10;249.18;;;44.08;;
